sensor_id;sensor_type;location;lat;lon;timestamp;pressure;altitude;pressure_sealevel;temperature;humidity
55470;BME280;41334;47.872;16.384;2022-10-03T00:04:56;99323.75;;;7.66;100.00
55470;BME280;41334;47.872;16.384;2022-10-03T00:08:18;99341.75;;;7.72;100.00
55470;BME280;41334;47.872;16.384;2022-10-03T00:14:57;99333.59;;;7.73;100.00
55470;BME280;41334;47.872;16.384;2022-10-03T00:18:29;99328.41;;;7.72;100.00
55470;BME280;41334;47.872;16.384;2022-10-03T00:21:46;99339.75;;;7.66;100.00
55470;BME280;41334;47.872;16.384;2022-10-03T00:28:47;99334.44;;;7.66;100.00
55470;BME280;41334;47.872;16.384;2022-10-03T00:31:52;99334.09;;;7.61;100.00
55470;BME280;41334;47.872;16.384;2022-10-03T00:35:26;99339.56;;;7.76;100.00
55470;BME280;41334;47.872;16.384;2022-10-03T00:41:58;99336.25;;;7.82;100.00
55470;BME280;41334;47.872;16.384;2022-10-03T00:58:28;99345.09;;;7.58;100.00
55470;BME280;41334;47.872;16.384;2022-10-03T01:01:45;99344.63;;;7.54;100.00
55470;BME280;41334;47.872;16.384;2022-10-03T01:04:58;99340.00;;;7.48;100.00
55470;BME280;41334;47.872;16.384;2022-10-03T01:11:33;99330.81;;;7.51;100.00
55470;BME280;41334;47.872;16.384;2022-10-03T01:18:10;99339.75;;;7.66;100.00
55470;BME280;41334;47.872;16.384;2022-10-03T01:25:25;99325.09;;;7.70;100.00
55470;BME280;41334;47.872;16.384;2022-10-03T01:32:07;99316.69;;;7.81;100.00
55470;BME280;41334;47.872;16.384;2022-10-03T01:38:54;99301.38;;;7.83;100.00
55470;BME280;41334;47.872;16.384;2022-10-03T01:45:23;99311.53;;;7.80;100.00
55470;BME280;41334;47.872;16.384;2022-10-03T01:55:11;99300.91;;;8.11;100.00
55470;BME280;41334;47.872;16.384;2022-10-03T02:01:45;99298.69;;;8.14;100.00
55470;BME280;41334;47.872;16.384;2022-10-03T02:04:59;99294.91;;;8.09;100.00
55470;BME280;41334;47.872;16.384;2022-10-03T02:15:10;99301.00;;;7.94;100.00
55470;BME280;41334;47.872;16.384;2022-10-03T02:18:26;99306.47;;;8.01;100.00
55470;BME280;41334;47.872;16.384;2022-10-03T02:21:29;99309.84;;;7.95;100.00
55470;BME280;41334;47.872;16.384;2022-10-03T02:31:27;99330.06;;;7.89;100.00
55470;BME280;41334;47.872;16.384;2022-10-03T02:37:59;99326.00;;;7.93;100.00
55470;BME280;41334;47.872;16.384;2022-10-03T03:01:51;99341.28;;;8.16;100.00
55470;BME280;41334;47.872;16.384;2022-10-03T03:08:23;99340.66;;;8.06;100.00
55470;BME280;41334;47.872;16.384;2022-10-03T03:15:58;99348.72;;;7.81;100.00
55470;BME280;41334;47.872;16.384;2022-10-03T03:19:34;99350.88;;;7.78;100.00
55470;BME280;41334;47.872;16.384;2022-10-03T03:26:22;99372.59;;;7.83;100.00
55470;BME280;41334;47.872;16.384;2022-10-03T03:29:48;99369.75;;;7.68;100.00
55470;BME280;41334;47.872;16.384;2022-10-03T03:33:12;99377.13;;;7.66;100.00
55470;BME280;41334;47.872;16.384;2022-10-03T03:50:22;99386.63;;;7.68;100.00
55470;BME280;41334;47.872;16.384;2022-10-03T04:00:07;99371.94;;;7.89;100.00
55470;BME280;41334;47.872;16.384;2022-10-03T04:10:20;99363.06;;;7.80;100.00
55470;BME280;41334;47.872;16.384;2022-10-03T04:13:47;99375.28;;;7.74;100.00
55470;BME280;41334;47.872;16.384;2022-10-03T04:37:15;99373.09;;;7.70;100.00
55470;BME280;41334;47.872;16.384;2022-10-03T04:40:26;99384.94;;;7.67;100.00
55470;BME280;41334;47.872;16.384;2022-10-03T04:43:45;99386.09;;;7.81;100.00
55470;BME280;41334;47.872;16.384;2022-10-03T04:46:54;99384.28;;;7.73;100.00
55470;BME280;41334;47.872;16.384;2022-10-03T04:50:16;99379.78;;;7.74;100.00
55470;BME280;41334;47.872;16.384;2022-10-03T04:57:06;99388.59;;;7.74;100.00
55470;BME280;41334;47.872;16.384;2022-10-03T05:00:22;99386.25;;;7.88;100.00
55470;BME280;41334;47.872;16.384;2022-10-03T05:04:00;99387.44;;;7.85;100.00
55470;BME280;41334;47.872;16.384;2022-10-03T05:07:19;99398.63;;;7.89;100.00
55470;BME280;41334;47.872;16.384;2022-10-03T05:17:01;99390.78;;;7.79;100.00
55470;BME280;41334;47.872;16.384;2022-10-03T05:34:19;99411.28;;;7.87;100.00
55470;BME280;41334;47.872;16.384;2022-10-03T05:37:50;99424.13;;;7.83;100.00
55470;BME280;41334;47.872;16.384;2022-10-03T05:41:09;99421.13;;;7.86;100.00
55470;BME280;41334;47.872;16.384;2022-10-03T05:44:16;99423.47;;;7.89;100.00
55470;BME280;41334;47.872;16.384;2022-10-03T05:47:47;99433.59;;;7.94;100.00
55470;BME280;41334;47.872;16.384;2022-10-03T06:12:06;99457.28;;;8.44;100.00
55470;BME280;41334;47.872;16.384;2022-10-03T06:15:32;99455.09;;;8.56;100.00
55470;BME280;41334;47.872;16.384;2022-10-03T06:19:02;99459.84;;;8.69;100.00
55470;BME280;41334;47.872;16.384;2022-10-03T06:36:36;99458.69;;;9.17;100.00
55470;BME280;41334;47.872;16.384;2022-10-03T06:53:41;99445.56;;;9.39;99.01
55470;BME280;41334;47.872;16.384;2022-10-03T07:00:20;99452.59;;;9.54;98.14
55470;BME280;41334;47.872;16.384;2022-10-03T07:03:40;99458.59;;;9.57;96.77
55470;BME280;41334;47.872;16.384;2022-10-03T07:07:29;99455.56;;;9.60;94.18
55470;BME280;41334;47.872;16.384;2022-10-03T07:14:10;99445.44;;;9.70;92.65
55470;BME280;41334;47.872;16.384;2022-10-03T07:17:44;99455.94;;;9.71;89.79
55470;BME280;41334;47.872;16.384;2022-10-03T07:35:37;99452.94;;;10.04;88.52
55470;BME280;41334;47.872;16.384;2022-10-03T07:42:17;99476.84;;;10.05;85.50
55470;BME280;41334;47.872;16.384;2022-10-03T07:45:33;99461.44;;;10.07;84.56
55470;BME280;41334;47.872;16.384;2022-10-03T07:48:47;99459.50;;;10.16;85.44
55470;BME280;41334;47.872;16.384;2022-10-03T08:02:57;99469.00;;;10.33;82.33
55470;BME280;41334;47.872;16.384;2022-10-03T08:22:59;99470.13;;;10.69;79.14
55470;BME280;41334;47.872;16.384;2022-10-03T08:33:14;99495.03;;;10.84;79.63
55470;BME280;41334;47.872;16.384;2022-10-03T08:40:12;99487.91;;;10.91;80.26
55470;BME280;41334;47.872;16.384;2022-10-03T09:00:16;99499.50;;;11.34;73.30
55470;BME280;41334;47.872;16.384;2022-10-03T09:07:14;99487.16;;;11.40;72.35
55470;BME280;41334;47.872;16.384;2022-10-03T09:10:33;99483.31;;;11.49;70.17
55470;BME280;41334;47.872;16.384;2022-10-03T09:13:58;99506.34;;;11.80;70.65
55470;BME280;41334;47.872;16.384;2022-10-03T09:54:37;99504.53;;;12.50;56.95
55470;BME280;41334;47.872;16.384;2022-10-03T10:01:18;99499.78;;;12.52;58.15
55470;BME280;41334;47.872;16.384;2022-10-03T10:04:56;99498.97;;;12.51;59.34
55470;BME280;41334;47.872;16.384;2022-10-03T10:08:32;99501.94;;;12.70;58.00
55470;BME280;41334;47.872;16.384;2022-10-03T11:13:13;99504.31;;;12.45;57.80
55470;BME280;41334;47.872;16.384;2022-10-03T11:31:13;99486.75;;;12.97;54.51
55470;BME280;41334;47.872;16.384;2022-10-03T11:40:51;99501.97;;;13.51;56.76
55470;BME280;41334;47.872;16.384;2022-10-03T11:44:19;99481.88;;;13.33;54.82
55470;BME280;41334;47.872;16.384;2022-10-03T11:47:42;99492.25;;;13.56;56.59
55470;BME280;41334;47.872;16.384;2022-10-03T11:50:56;99481.47;;;13.43;54.51
55470;BME280;41334;47.872;16.384;2022-10-03T11:54:26;99460.78;;;13.63;53.82
55470;BME280;41334;47.872;16.384;2022-10-03T11:57:38;99461.59;;;13.70;53.11
55470;BME280;41334;47.872;16.384;2022-10-03T12:00:41;99454.97;;;13.66;54.23
55470;BME280;41334;47.872;16.384;2022-10-03T12:08:05;99459.31;;;13.87;53.46
55470;BME280;41334;47.872;16.384;2022-10-03T12:11:11;99455.38;;;13.63;56.01
55470;BME280;41334;47.872;16.384;2022-10-03T12:14:29;99449.16;;;13.69;54.68
55470;BME280;41334;47.872;16.384;2022-10-03T12:17:36;99451.88;;;13.83;53.14
55470;BME280;41334;47.872;16.384;2022-10-03T12:21:02;99456.22;;;13.70;53.03
55470;BME280;41334;47.872;16.384;2022-10-03T12:24:27;99449.16;;;13.43;55.54
55470;BME280;41334;47.872;16.384;2022-10-03T12:40:41;99468.22;;;14.08;52.02
55470;BME280;41334;47.872;16.384;2022-10-03T13:28:46;99551.69;;;11.10;81.63
55470;BME280;41334;47.872;16.384;2022-10-03T13:32:16;99551.78;;;11.02;80.95
55470;BME280;41334;47.872;16.384;2022-10-03T13:45:29;99548.00;;;11.33;77.06
55470;BME280;41334;47.872;16.384;2022-10-03T13:48:33;99528.75;;;11.29;76.53
55470;BME280;41334;47.872;16.384;2022-10-03T13:51:57;99525.13;;;11.16;74.00
55470;BME280;41334;47.872;16.384;2022-10-03T13:55:21;99540.41;;;11.36;75.18
55470;BME280;41334;47.872;16.384;2022-10-03T14:08:59;99559.19;;;11.36;74.61
55470;BME280;41334;47.872;16.384;2022-10-03T14:12:35;99539.47;;;11.29;69.52
55470;BME280;41334;47.872;16.384;2022-10-03T14:19:45;99536.94;;;11.43;67.89
55470;BME280;41334;47.872;16.384;2022-10-03T14:22:33;99527.25;;;11.42;68.19
55470;BME280;41334;47.872;16.384;2022-10-03T14:25:42;99540.66;;;11.42;68.68
55470;BME280;41334;47.872;16.384;2022-10-03T14:29:15;99536.50;;;11.39;67.41
55470;BME280;41334;47.872;16.384;2022-10-03T14:32:38;99536.94;;;11.43;68.05
55470;BME280;41334;47.872;16.384;2022-10-03T14:42:42;99526.94;;;11.73;66.33
55470;BME280;41334;47.872;16.384;2022-10-03T14:45:50;99532.28;;;11.94;66.65
55470;BME280;41334;47.872;16.384;2022-10-03T14:48:58;99513.53;;;12.01;66.65
55470;BME280;41334;47.872;16.384;2022-10-03T14:52:19;99527.97;;;12.00;67.00
55470;BME280;41334;47.872;16.384;2022-10-03T14:55:25;99519.63;;;11.88;66.28
55470;BME280;41334;47.872;16.384;2022-10-03T14:58:53;99513.63;;;11.65;66.02
55470;BME280;41334;47.872;16.384;2022-10-03T15:01:56;99522.19;;;11.53;66.68
55470;BME280;41334;47.872;16.384;2022-10-03T15:05:32;99497.41;;;11.51;67.96
55470;BME280;41334;47.872;16.384;2022-10-03T15:08:54;99511.56;;;11.45;68.07
55470;BME280;41334;47.872;16.384;2022-10-03T15:12:02;99509.97;;;11.29;67.00
55470;BME280;41334;47.872;16.384;2022-10-03T15:15:16;99515.41;;;11.36;68.15
55470;BME280;41334;47.872;16.384;2022-10-03T15:18:21;99532.72;;;11.33;69.21
55470;BME280;41334;47.872;16.384;2022-10-03T15:21:25;99523.97;;;11.25;70.08
55470;BME280;41334;47.872;16.384;2022-10-03T15:24:32;99532.47;;;11.28;68.89
55470;BME280;41334;47.872;16.384;2022-10-03T15:27:39;99535.34;;;11.27;68.61
55470;BME280;41334;47.872;16.384;2022-10-03T15:30:42;99537.88;;;11.35;68.73
55470;BME280;41334;47.872;16.384;2022-10-03T15:33:50;99534.00;;;11.37;68.32
55470;BME280;41334;47.872;16.384;2022-10-03T15:37:03;99531.59;;;11.43;68.25
55470;BME280;41334;47.872;16.384;2022-10-03T15:40:20;99521.03;;;11.41;68.62
55470;BME280;41334;47.872;16.384;2022-10-03T15:53:20;99528.19;;;10.98;71.06
55470;BME280;41334;47.872;16.384;2022-10-03T15:56:38;99527.38;;;10.82;72.12
55470;BME280;41334;47.872;16.384;2022-10-03T15:59:49;99541.47;;;10.70;72.18
55470;BME280;41334;47.872;16.384;2022-10-03T16:28:02;99564.28;;;9.98;75.04
55470;BME280;41334;47.872;16.384;2022-10-03T16:31:17;99562.16;;;9.94;76.55
55470;BME280;41334;47.872;16.384;2022-10-03T16:34:21;99575.34;;;9.80;76.81
55470;BME280;41334;47.872;16.384;2022-10-03T16:37:26;99596.47;;;9.75;78.35
55470;BME280;41334;47.872;16.384;2022-10-03T16:40:29;99592.34;;;9.65;80.22
55470;BME280;41334;47.872;16.384;2022-10-03T16:43:31;99588.38;;;9.61;81.45
55470;BME280;41334;47.872;16.384;2022-10-03T16:46:38;99603.81;;;9.50;82.94
55470;BME280;41334;47.872;16.384;2022-10-03T16:49:42;99613.72;;;9.42;83.88
55470;BME280;41334;47.872;16.384;2022-10-03T16:53:06;99623.63;;;9.33;84.75
55470;BME280;41334;47.872;16.384;2022-10-03T16:56:13;99617.63;;;9.31;85.20
55470;BME280;41334;47.872;16.384;2022-10-03T16:59:19;99627.03;;;9.19;86.42
55470;BME280;41334;47.872;16.384;2022-10-03T17:02:22;99625.59;;;9.08;87.45
55470;BME280;41334;47.872;16.384;2022-10-03T17:05:27;99626.56;;;9.07;87.44
55470;BME280;41334;47.872;16.384;2022-10-03T17:08:34;99626.44;;;9.00;88.02
55470;BME280;41334;47.872;16.384;2022-10-03T17:11:42;99626.69;;;8.83;88.87
55470;BME280;41334;47.872;16.384;2022-10-03T17:14:46;99631.38;;;8.72;89.15
55470;BME280;41334;47.872;16.384;2022-10-03T17:17:49;99629.03;;;8.69;89.50
55470;BME280;41334;47.872;16.384;2022-10-03T17:20:59;99629.03;;;8.69;89.04
55470;BME280;41334;47.872;16.384;2022-10-03T17:27:09;99635.59;;;8.59;89.72
55470;BME280;41334;47.872;16.384;2022-10-03T17:30:38;99639.41;;;8.64;89.48
55470;BME280;41334;47.872;16.384;2022-10-03T17:34:10;99643.94;;;8.64;89.98
55470;BME280;41334;47.872;16.384;2022-10-03T17:37:13;99640.25;;;8.65;90.14
55470;BME280;41334;47.872;16.384;2022-10-03T17:40:20;99639.41;;;8.72;89.37
55470;BME280;41334;47.872;16.384;2022-10-03T17:50:08;99634.53;;;8.76;89.87
55470;BME280;41334;47.872;16.384;2022-10-03T17:53:18;99634.53;;;8.84;89.58
55470;BME280;41334;47.872;16.384;2022-10-03T17:56:21;99632.19;;;8.81;90.13
55470;BME280;41334;47.872;16.384;2022-10-03T17:59:27;99630.66;;;8.87;89.91
55470;BME280;41334;47.872;16.384;2022-10-03T18:02:33;99637.00;;;8.86;90.04
55470;BME280;41334;47.872;16.384;2022-10-03T18:05:38;99635.03;;;8.80;90.79
55470;BME280;41334;47.872;16.384;2022-10-03T18:08:41;99635.53;;;8.75;90.84
55470;BME280;41334;47.872;16.384;2022-10-03T18:11:44;99631.03;;;8.75;90.54
55470;BME280;41334;47.872;16.384;2022-10-03T18:24:55;99631.94;;;8.51;90.40
55470;BME280;41334;47.872;16.384;2022-10-03T18:28:06;99629.28;;;8.51;90.14
55470;BME280;41334;47.872;16.384;2022-10-03T18:31:19;99630.28;;;8.42;90.90
55470;BME280;41334;47.872;16.384;2022-10-03T18:34:27;99628.44;;;8.35;90.98
55470;BME280;41334;47.872;16.384;2022-10-03T18:40:34;99622.78;;;8.30;90.89
55470;BME280;41334;47.872;16.384;2022-10-03T18:43:37;99619.44;;;8.36;89.42
55470;BME280;41334;47.872;16.384;2022-10-03T18:46:45;99627.09;;;8.39;88.95
55470;BME280;41334;47.872;16.384;2022-10-03T18:53:30;99619.75;;;8.49;86.47
55470;BME280;41334;47.872;16.384;2022-10-03T18:56:30;99622.91;;;8.44;86.84
55470;BME280;41334;47.872;16.384;2022-10-03T18:59:54;99620.44;;;8.43;87.61
55470;BME280;41334;47.872;16.384;2022-10-03T19:03:00;99625.94;;;8.33;88.85
55470;BME280;41334;47.872;16.384;2022-10-03T19:06:07;99631.13;;;8.27;89.75
55470;BME280;41334;47.872;16.384;2022-10-03T19:09:26;99631.31;;;8.17;90.99
55470;BME280;41334;47.872;16.384;2022-10-03T19:12:30;99637.66;;;8.08;91.50
55470;BME280;41334;47.872;16.384;2022-10-03T19:15:47;99645.84;;;8.06;90.99
55470;BME280;41334;47.872;16.384;2022-10-03T19:22:12;99637.16;;;7.96;91.40
55470;BME280;41334;47.872;16.384;2022-10-03T19:25:17;99641.31;;;8.07;90.03
55470;BME280;41334;47.872;16.384;2022-10-03T19:28:24;99636.31;;;8.04;90.79
55470;BME280;41334;47.872;16.384;2022-10-03T19:31:43;99642.66;;;8.03;91.54
55470;BME280;41334;47.872;16.384;2022-10-03T19:34:47;99646.00;;;7.96;92.99
55470;BME280;41334;47.872;16.384;2022-10-03T19:37:51;99641.31;;;7.90;93.93
55470;BME280;41334;47.872;16.384;2022-10-03T19:44:23;99643.31;;;7.96;94.33
55470;BME280;41334;47.872;16.384;2022-10-03T19:47:36;99632.97;;;8.02;94.42
55470;BME280;41334;47.872;16.384;2022-10-03T19:50:38;99639.16;;;8.02;94.09
55470;BME280;41334;47.872;16.384;2022-10-03T19:53:40;99624.97;;;8.02;94.05
55470;BME280;41334;47.872;16.384;2022-10-03T19:56:43;99633.81;;;8.02;94.29
55470;BME280;41334;47.872;16.384;2022-10-03T19:59:51;99639.66;;;7.97;93.98
55470;BME280;41334;47.872;16.384;2022-10-03T20:03:03;99633.66;;;7.95;94.32
55470;BME280;41334;47.872;16.384;2022-10-03T20:09:26;99650.66;;;7.94;94.41
55470;BME280;41334;47.872;16.384;2022-10-03T20:12:29;99652.16;;;7.89;95.06
55470;BME280;41334;47.872;16.384;2022-10-03T20:15:33;99659.16;;;7.98;94.80
55470;BME280;41334;47.872;16.384;2022-10-03T20:18:35;99654.50;;;8.00;94.71
55470;BME280;41334;47.872;16.384;2022-10-03T20:21:37;99652.84;;;8.07;94.34
55470;BME280;41334;47.872;16.384;2022-10-03T20:24:41;99653.66;;;8.08;94.13
55470;BME280;41334;47.872;16.384;2022-10-03T20:27:46;99661.16;;;8.04;94.46
55470;BME280;41334;47.872;16.384;2022-10-03T20:30:50;99655.34;;;8.01;94.78
55470;BME280;41334;47.872;16.384;2022-10-03T20:33:53;99649.81;;;7.94;94.75
55470;BME280;41334;47.872;16.384;2022-10-03T20:43:32;99652.44;;;7.78;95.95
55470;BME280;41334;47.872;16.384;2022-10-03T20:46:51;99642.09;;;7.74;96.04
55470;BME280;41334;47.872;16.384;2022-10-03T20:50:00;99654.28;;;7.69;96.77
55470;BME280;41334;47.872;16.384;2022-10-03T20:53:10;99655.78;;;7.63;97.46
55470;BME280;41334;47.872;16.384;2022-10-03T20:56:12;99664.13;;;7.68;98.28
55470;BME280;41334;47.872;16.384;2022-10-03T20:59:15;99655.44;;;7.74;97.63
55470;BME280;41334;47.872;16.384;2022-10-03T21:08:36;99651.97;;;7.82;97.92
55470;BME280;41334;47.872;16.384;2022-10-03T21:11:38;99655.00;;;7.95;96.48
55470;BME280;41334;47.872;16.384;2022-10-03T21:14:44;99654.19;;;8.11;94.78
55470;BME280;41334;47.872;16.384;2022-10-03T21:17:46;99644.47;;;8.18;93.49
55470;BME280;41334;47.872;16.384;2022-10-03T21:20:55;99641.31;;;8.23;92.53
55470;BME280;41334;47.872;16.384;2022-10-03T21:27:06;99640.81;;;8.19;92.27
55470;BME280;41334;47.872;16.384;2022-10-03T21:30:16;99632.97;;;8.18;91.83
55470;BME280;41334;47.872;16.384;2022-10-03T21:33:19;99644.00;;;8.15;91.50
55470;BME280;41334;47.872;16.384;2022-10-03T21:36:30;99641.84;;;8.10;92.08
55470;BME280;41334;47.872;16.384;2022-10-03T21:42:57;99646.84;;;8.05;91.80
55470;BME280;41334;47.872;16.384;2022-10-03T21:52:36;99622.94;;;8.28;88.95
55470;BME280;41334;47.872;16.384;2022-10-03T21:55:49;99624.59;;;8.29;88.74
55470;BME280;41334;47.872;16.384;2022-10-03T21:59:16;99621.25;;;8.35;87.99
55470;BME280;41334;47.872;16.384;2022-10-03T22:05:32;99618.91;;;8.48;87.12
55470;BME280;41334;47.872;16.384;2022-10-03T22:08:39;99615.41;;;8.48;87.52
55470;BME280;41334;47.872;16.384;2022-10-03T22:14:53;99609.09;;;8.41;88.59
55470;BME280;41334;47.872;16.384;2022-10-03T22:18:06;99601.72;;;8.35;89.01
55470;BME280;41334;47.872;16.384;2022-10-03T22:21:17;99602.91;;;8.32;89.51
55470;BME280;41334;47.872;16.384;2022-10-03T22:25:05;99596.38;;;8.35;89.11
55470;BME280;41334;47.872;16.384;2022-10-03T22:27:57;99609.41;;;8.38;88.48
55470;BME280;41334;47.872;16.384;2022-10-03T22:37:16;99592.88;;;8.42;88.15
55470;BME280;41334;47.872;16.384;2022-10-03T22:40:18;99593.38;;;8.46;88.05
55470;BME280;41334;47.872;16.384;2022-10-03T22:43:20;99595.88;;;8.47;87.11
55470;BME280;41334;47.872;16.384;2022-10-03T22:46:25;99586.34;;;8.45;86.59
55470;BME280;41334;47.872;16.384;2022-10-03T22:49:29;99594.53;;;8.43;86.70
55470;BME280;41334;47.872;16.384;2022-10-03T22:52:37;99602.22;;;8.38;87.56
55470;BME280;41334;47.872;16.384;2022-10-03T22:55:41;99599.06;;;8.35;88.39
55470;BME280;41334;47.872;16.384;2022-10-03T22:58:44;99606.41;;;8.33;87.85
55470;BME280;41334;47.872;16.384;2022-10-03T23:01:47;99610.75;;;8.34;86.73
55470;BME280;41334;47.872;16.384;2022-10-03T23:04:58;99610.06;;;8.40;86.54
55470;BME280;41334;47.872;16.384;2022-10-03T23:11:15;99596.56;;;8.41;85.76
55470;BME280;41334;47.872;16.384;2022-10-03T23:14:24;99595.38;;;8.44;84.70
55470;BME280;41334;47.872;16.384;2022-10-03T23:33:18;99595.75;;;8.16;85.94
55470;BME280;41334;47.872;16.384;2022-10-03T23:36:57;99605.63;;;8.16;86.23
55470;BME280;41334;47.872;16.384;2022-10-03T23:43:14;99605.28;;;8.11;86.52
55470;BME280;41334;47.872;16.384;2022-10-03T23:46:19;99607.97;;;7.94;87.91
55470;BME280;41334;47.872;16.384;2022-10-03T23:49:23;99608.91;;;7.77;89.51
55470;BME280;41334;47.872;16.384;2022-10-03T23:52:26;99613.09;;;7.63;91.50
55470;BME280;41334;47.872;16.384;2022-10-03T23:55:30;99615.91;;;7.62;92.45
55470;BME280;41334;47.872;16.384;2022-10-03T23:58:34;99619.88;;;7.50;93.50
